San Antonio, Texas
Traffic Map
Current Weather Conditions
San Antonio, Texas
Scattered Clouds
Scattered Clouds
20°
Feels Like: 20°
Wind Chill: 20° Ceiling: Unl
Heat Index: 20° Visibility: 10mi
Dew Point: 18° Wind: 2mph
Humidity: 83% Direction: 300° (WNW)
Pressure: 30.12in Gusts: 0mph
Raw Report DataKSKF 231358Z AUTO 30002KT 10SM SCT140 20/18 A3012 RMK AO2 SLP194 T02040175 $
Traffic Incident Summary
Active as of:
Severity:
Category:
InformationThere was an issue retrieving the traffic information for this location. Please try a different location or try again shortly.
Advertisements
Track Severe Weather on mobile